Strona główna
METAR-TAF:

METAR-TAF

Lotnisko :

Monte Scuro, Włochy

Szerokość geograficzna: 39-20N, Długość geograficzna: 016-24E, wysokość: 1710 m

Aktualna obserwacja pogody

Raport powstał 44 minut temu, godzina 20:55 UTC
Wiatr 9 kt od wschodnio-północny wschód
Temperatura 7°C
Wilgotność 24%
Ciśnienie 1025 hPa
Widzialność 10 km lub więcej
Brak chmur poniżej 1500 m i brak chmur cumulonimbus

METAR: LIBQ 232055Z 06009KT CAVOK 07/M12 Q1025 RMK SKC MON LIB VAL NIL VIS MIN 9999

czas: 22:39 (21:39 UTC)


TAF: brakujący

Obserwacja i prognoza pogody dla ponad 4000 lotnisk (raport METAR i TAF).

Dostępne stacje oznaczono żółtymi i czerwonymi punktami na mapie.

Najedź kursorem aby zobaczyć nazwę stacji.

Kliknij aby zobaczyć obserwacje i prognozy pogody.

Aby zmienić mapę: kliknij na zielony przycisk z czarnym krzyżykiem, aby powiększyć; na zielony przycisk z myślnikiem, aby pomniejszyć; na zielone strzałki, aby przejść do map sąsiednich.


METAR-TAF: